createdAt,value
2022-11-23T00:01:33.559Z,18.45
2022-11-23T00:04:05.252Z,17.50
2022-11-23T00:06:33.516Z,18.23
2022-11-23T00:09:01.132Z,15.95
2022-11-23T00:11:29.396Z,16.73
2022-11-23T00:13:57.320Z,17.05
2022-11-23T00:19:12.941Z,18.88
2022-11-23T00:21:39.763Z,18.50
2022-11-23T00:24:07.098Z,18.67
2022-11-23T00:26:33.943Z,17.58
2022-11-23T00:29:01.153Z,19.85
2022-11-23T00:31:28.361Z,17.95
2022-11-23T00:33:57.607Z,19.83
2022-11-23T00:36:27.344Z,18.75
2022-11-23T00:38:54.822Z,18.90
2022-11-23T00:41:25.396Z,18.38
2022-11-23T00:43:52.847Z,19.17
2022-11-23T00:46:26.838Z,17.83
2022-11-23T00:48:56.375Z,19.88
2022-11-23T00:51:27.743Z,19.70
2022-11-23T00:53:55.545Z,19.65
2022-11-23T00:56:22.528Z,21.33
2022-11-23T00:58:51.923Z,20.30
2022-11-23T01:01:22.852Z,20.27
2022-11-23T01:03:57.267Z,20.02
2022-11-23T01:06:29.216Z,19.10
2022-11-23T01:09:00.095Z,19.58
2022-11-23T01:11:30.398Z,18.60
2022-11-23T01:13:58.543Z,20.50
2022-11-23T01:16:33.044Z,18.45
2022-11-23T01:19:04.119Z,19.55
2022-11-23T01:21:33.034Z,19.42
2022-11-23T01:24:00.293Z,20.70
2022-11-23T01:26:27.302Z,20.30
2022-11-23T01:28:54.395Z,19.88
2022-11-23T01:31:24.850Z,18.08
2022-11-23T01:34:01.787Z,19.83
2022-11-23T01:36:34.029Z,19.52
2022-11-23T01:39:04.040Z,19.52
2022-11-23T01:41:43.203Z,21.02
2022-11-23T01:44:28.956Z,20.27
2022-11-23T01:46:59.930Z,21.10
2022-11-23T01:49:35.703Z,19.30
2022-11-23T01:52:14.678Z,20.50
2022-11-23T01:54:49.303Z,21.45
2022-11-23T01:57:28.469Z,21.00
2022-11-23T01:59:57.057Z,21.83
2022-11-23T02:02:28.363Z,19.80
2022-11-23T02:05:01.290Z,22.00
2022-11-23T02:07:30.253Z,21.98
2022-11-23T02:09:58.233Z,22.20
2022-11-23T02:12:25.049Z,20.83
2022-11-23T02:14:52.304Z,21.90
2022-11-23T02:17:19.776Z,21.38
2022-11-23T02:20:16.038Z,21.88
2022-11-23T02:22:57.788Z,20.95
2022-11-23T02:25:51.233Z,21.25
2022-11-23T02:28:26.830Z,22.30
2022-11-23T02:33:41.502Z,20.08
2022-11-23T02:36:30.662Z,21.92
2022-11-23T02:39:03.549Z,20.65
2022-11-23T02:41:41.199Z,20.80
2022-11-23T02:44:31.953Z,20.60
2022-11-23T02:46:59.219Z,19.40
2022-11-23T02:49:26.413Z,20.55
2022-11-23T02:51:53.548Z,20.67
2022-11-23T02:54:20.583Z,23.75
2022-11-23T02:56:47.681Z,23.02
2022-11-23T02:59:14.923Z,22.83
2022-11-23T03:01:41.935Z,22.75
2022-11-23T03:04:09.649Z,22.73
2022-11-23T03:06:37.583Z,22.42
2022-11-23T03:09:04.562Z,23.75
2022-11-23T03:11:32.317Z,21.88
2022-11-23T03:13:59.955Z,22.95
2022-11-23T03:16:27.008Z,22.88
2022-11-23T03:18:54.282Z,22.75
2022-11-23T03:21:21.373Z,23.48
2022-11-23T03:23:48.397Z,23.65
2022-11-23T03:26:15.628Z,22.63
2022-11-23T03:28:42.456Z,21.35
2022-11-23T03:31:09.546Z,21.55
2022-11-23T03:33:36.387Z,24.20
2022-11-23T03:36:03.725Z,22.55
2022-11-23T03:38:30.793Z,23.23
2022-11-23T03:40:57.980Z,22.77
2022-11-23T03:43:24.895Z,22.73
2022-11-23T03:45:52.272Z,21.63
2022-11-23T03:48:19.091Z,23.35
2022-11-23T03:50:46.201Z,21.40
2022-11-23T03:53:13.171Z,22.98
2022-11-23T03:55:40.363Z,22.27
2022-11-23T03:58:07.318Z,21.65
2022-11-23T04:00:34.677Z,22.05
2022-11-23T04:03:01.570Z,23.15
2022-11-23T04:05:28.740Z,20.35
2022-11-23T04:07:56.837Z,19.58
2022-11-23T04:10:24.854Z,22.40
2022-11-23T04:12:53.337Z,21.73
2022-11-23T04:15:20.694Z,21.63
2022-11-23T04:17:47.752Z,22.20
2022-11-23T04:20:15.127Z,21.33
2022-11-23T04:22:41.986Z,21.02
2022-11-23T04:25:10.325Z,21.98
2022-11-23T04:27:37.340Z,22.45
2022-11-23T04:30:05.802Z,21.02
2022-11-23T04:32:32.732Z,22.33
2022-11-23T04:34:59.887Z,21.42
2022-11-23T04:37:27.103Z,22.05
2022-11-23T04:39:55.307Z,22.33
2022-11-23T04:42:22.186Z,21.40
2022-11-23T04:44:49.218Z,20.52
2022-11-23T04:47:16.109Z,22.60
2022-11-23T04:49:43.258Z,21.25
2022-11-23T04:52:10.133Z,22.73
2022-11-23T04:54:37.230Z,24.10
2022-11-23T04:57:04.305Z,24.65
2022-11-23T04:59:32.215Z,24.02
2022-11-23T05:01:59.417Z,21.08
2022-11-23T05:04:26.804Z,24.55
2022-11-23T05:06:53.670Z,24.73
2022-11-23T05:09:20.856Z,24.05
2022-11-23T05:11:48.363Z,23.23
2022-11-23T05:14:15.588Z,24.35
2022-11-23T05:16:42.488Z,24.50
2022-11-23T05:19:12.609Z,23.95
2022-11-23T05:21:39.395Z,23.23
2022-11-23T05:24:07.051Z,22.90
2022-11-23T05:26:33.886Z,22.42
2022-11-23T05:29:00.930Z,20.98
2022-11-23T05:31:27.761Z,23.88
2022-11-23T05:33:54.840Z,23.70
2022-11-23T05:36:21.638Z,23.27
2022-11-23T05:38:48.731Z,22.42
2022-11-23T05:41:15.593Z,21.70
2022-11-23T05:43:42.668Z,23.27
2022-11-23T05:46:09.490Z,23.50
2022-11-23T05:48:36.548Z,22.95
2022-11-23T05:51:05.419Z,24.05
2022-11-23T05:53:32.979Z,23.67
2022-11-23T05:56:02.119Z,23.80
2022-11-23T05:58:29.885Z,22.02
2022-11-23T06:01:01.107Z,23.00
2022-11-23T06:03:28.323Z,22.23
2022-11-23T06:05:55.372Z,24.23
2022-11-23T06:08:22.601Z,23.70
2022-11-23T06:10:49.494Z,24.33
2022-11-23T06:13:16.636Z,25.95
2022-11-23T06:15:43.456Z,25.73
2022-11-23T06:18:10.505Z,57.75
2022-11-23T06:20:37.354Z,27.67
2022-11-23T06:23:04.456Z,24.48
2022-11-23T06:25:31.328Z,25.27
2022-11-23T06:28:01.277Z,23.77
2022-11-23T06:30:31.072Z,24.58
2022-11-23T06:32:58.469Z,23.70
2022-11-23T06:35:25.453Z,23.92
2022-11-23T06:37:54.585Z,24.13
2022-11-23T06:40:21.996Z,24.20
2022-11-23T06:42:49.178Z,25.35
2022-11-23T06:45:16.484Z,24.88
2022-11-23T06:47:44.174Z,25.08
2022-11-23T06:50:11.488Z,27.02
2022-11-23T06:52:38.778Z,25.42
2022-11-23T06:55:05.858Z,27.08
2022-11-23T06:57:33.043Z,29.40
2022-11-23T06:59:59.942Z,27.40
2022-11-23T07:02:27.114Z,27.08
2022-11-23T07:04:54.042Z,26.92
2022-11-23T07:07:21.324Z,28.33
2022-11-23T07:09:48.374Z,26.08
2022-11-23T07:12:15.502Z,27.23
2022-11-23T07:14:42.486Z,25.63
2022-11-23T07:17:12.667Z,26.40
2022-11-23T07:19:41.755Z,27.38
2022-11-23T07:22:08.899Z,28.50
2022-11-23T07:24:40.504Z,26.33
2022-11-23T07:27:10.016Z,28.77
2022-11-23T07:29:36.935Z,29.70
2022-11-23T07:32:04.205Z,28.85
2022-11-23T07:34:31.160Z,31.63
2022-11-23T07:37:02.293Z,31.38
2022-11-23T07:39:55.172Z,29.20
2022-11-23T07:42:32.731Z,28.27
2022-11-23T07:45:02.416Z,26.55
2022-11-23T07:47:29.570Z,26.13
2022-11-23T07:49:56.349Z,27.15
2022-11-23T07:52:24.308Z,24.92
2022-11-23T07:54:51.204Z,26.02
2022-11-23T07:57:18.503Z,27.73
2022-11-23T07:59:45.616Z,27.10
2022-11-23T08:02:15.995Z,24.85
2022-11-23T08:04:45.507Z,26.02
2022-11-23T08:07:12.888Z,27.83
2022-11-23T08:09:39.977Z,26.15
2022-11-23T08:12:09.155Z,28.23
2022-11-23T08:14:36.280Z,26.90
2022-11-23T08:17:03.629Z,24.67
2022-11-23T08:19:30.568Z,26.10
2022-11-23T08:21:57.610Z,24.98
2022-11-23T08:24:24.565Z,26.27
2022-11-23T08:26:51.630Z,24.20
2022-11-23T08:29:18.589Z,26.20
2022-11-23T08:31:47.976Z,27.20
2022-11-23T08:34:14.848Z,25.17
2022-11-23T08:36:42.054Z,25.73
2022-11-23T08:39:11.143Z,24.90
2022-11-23T08:41:38.695Z,25.25
2022-11-23T08:44:05.958Z,24.10
2022-11-23T08:46:33.059Z,24.63
2022-11-23T08:49:00.156Z,24.52
2022-11-23T08:51:27.353Z,24.35
2022-11-23T08:53:54.238Z,27.98
2022-11-23T08:56:21.495Z,26.60
2022-11-23T08:58:48.533Z,28.63
2022-11-23T09:01:17.885Z,26.73
2022-11-23T09:03:45.189Z,29.30
2022-11-23T09:06:12.649Z,27.15
2022-11-23T09:08:39.726Z,27.73
2022-11-23T09:11:12.145Z,29.27
2022-11-23T09:13:39.785Z,27.48
2022-11-23T09:16:07.963Z,24.48
2022-11-23T09:18:36.576Z,27.30
2022-11-23T09:21:06.067Z,26.90
2022-11-23T09:23:33.514Z,25.77
2022-11-23T09:26:05.556Z,22.60
2022-11-23T09:28:33.513Z,20.05
2022-11-23T09:31:04.995Z,23.48
2022-11-23T09:33:31.875Z,21.63
2022-11-23T09:36:04.205Z,23.48
2022-11-23T09:38:55.597Z,19.95
2022-11-23T09:42:06.403Z,21.63
2022-11-23T09:44:52.613Z,20.20
2022-11-23T09:48:18.154Z,21.17
2022-11-23T09:50:49.091Z,21.35
2022-11-23T09:53:29.859Z,22.50
2022-11-23T09:55:59.360Z,22.38
2022-11-23T09:58:36.509Z,21.77
2022-11-23T10:01:08.398Z,21.83
2022-11-23T10:03:48.449Z,22.30
2022-11-23T10:06:31.488Z,20.77
2022-11-23T10:09:38.090Z,20.10
2022-11-23T10:12:22.627Z,20.08
2022-11-23T10:15:31.908Z,23.55
2022-11-23T10:18:20.939Z,21.55
2022-11-23T10:21:22.100Z,21.90
2022-11-23T10:24:19.911Z,20.83
2022-11-23T10:26:52.086Z,21.85
2022-11-23T10:29:37.403Z,21.33
2022-11-23T10:32:32.862Z,21.63
2022-11-23T10:35:14.583Z,20.20
2022-11-23T10:37:43.072Z,21.92
2022-11-23T10:40:22.167Z,21.48
2022-11-23T10:42:56.301Z,19.58
2022-11-23T10:45:29.225Z,19.63
2022-11-23T10:47:59.694Z,21.65
2022-11-23T10:50:37.433Z,19.77
2022-11-23T10:53:23.079Z,18.33
2022-11-23T10:58:41.132Z,24.42
2022-11-23T11:01:23.276Z,21.20
2022-11-23T11:03:58.307Z,23.17
2022-11-23T11:06:30.149Z,22.35
2022-11-23T11:09:03.785Z,23.10
2022-11-23T11:11:35.511Z,21.45
2022-11-23T11:14:20.075Z,22.02
2022-11-23T11:16:58.153Z,21.80
2022-11-23T11:19:34.870Z,21.95
2022-11-23T11:22:33.568Z,21.83
2022-11-23T11:25:05.518Z,22.38
2022-11-23T11:27:34.080Z,21.27
2022-11-23T11:30:21.062Z,20.13
2022-11-23T11:33:17.586Z,20.20
2022-11-23T11:35:52.006Z,20.63
2022-11-23T11:38:29.773Z,20.33
2022-11-23T11:41:07.185Z,18.88
2022-11-23T11:43:40.622Z,20.70
2022-11-23T11:46:29.223Z,19.83
2022-11-23T11:49:21.889Z,22.98
2022-11-23T11:52:05.249Z,19.25
2022-11-23T11:54:50.035Z,20.98
2022-11-23T11:57:44.290Z,20.13
2022-11-23T12:00:18.484Z,20.77
2022-11-23T12:02:57.706Z,21.27
2022-11-23T12:05:36.701Z,20.38
2022-11-23T12:08:32.717Z,20.83
2022-11-23T12:13:40.545Z,20.30
2022-11-23T12:16:34.006Z,21.48
2022-11-23T12:19:28.439Z,24.77
2022-11-23T12:22:19.376Z,24.45
2022-11-23T12:25:19.648Z,23.63
2022-11-23T12:28:16.505Z,23.65
2022-11-23T12:31:16.611Z,23.70
2022-11-23T12:34:24.701Z,22.27
2022-11-23T12:37:13.515Z,22.33
2022-11-23T12:40:14.818Z,23.08
2022-11-23T12:42:48.544Z,25.10
2022-11-23T12:45:49.239Z,23.52
2022-11-23T12:48:37.993Z,24.67
2022-11-23T12:51:50.399Z,22.05
2022-11-23T12:54:45.318Z,27.42
2022-11-23T12:57:25.080Z,22.05
2022-11-23T13:00:03.882Z,23.65
2022-11-23T13:03:29.184Z,24.58
2022-11-23T13:06:08.525Z,21.90
2022-11-23T13:08:50.637Z,22.10
2022-11-23T13:12:09.534Z,21.80
2022-11-23T13:14:42.796Z,21.77
2022-11-23T13:17:46.581Z,22.70
2022-11-23T13:20:42.141Z,20.73
2022-11-23T13:25:36.650Z,20.02
2022-11-23T13:28:31.162Z,25.27
2022-11-23T13:31:32.113Z,21.48
2022-11-23T13:34:03.071Z,21.40
2022-11-23T13:36:49.358Z,18.77
2022-11-23T13:39:56.400Z,19.95
2022-11-23T13:42:26.744Z,20.60
2022-11-23T13:45:36.940Z,20.67
2022-11-23T13:48:09.805Z,21.13
2022-11-23T13:50:58.775Z,19.55
2022-11-23T13:53:32.640Z,19.20
2022-11-23T13:56:28.779Z,20.60
2022-11-23T14:02:06.837Z,19.30
2022-11-23T14:04:37.186Z,18.92
2022-11-23T14:07:25.489Z,16.90
2022-11-23T14:10:08.324Z,17.42
2022-11-23T14:13:00.520Z,18.23
2022-11-23T14:15:33.257Z,19.90
2022-11-23T14:18:30.262Z,22.50
2022-11-23T14:21:25.562Z,18.98
2022-11-23T14:24:24.431Z,21.77
2022-11-23T14:27:47.117Z,21.50
2022-11-23T14:30:34.030Z,19.92
2022-11-23T14:33:30.745Z,19.17
2022-11-23T14:36:47.226Z,19.48
2022-11-23T14:39:48.629Z,19.67
2022-11-23T14:42:20.758Z,20.67
2022-11-23T14:44:48.890Z,22.80
2022-11-23T14:47:27.910Z,22.25
2022-11-23T14:49:56.121Z,21.40
2022-11-23T14:52:29.196Z,21.80
2022-11-23T14:55:00.309Z,19.17
2022-11-23T14:57:41.325Z,18.08
2022-11-23T15:00:25.630Z,19.77
2022-11-23T15:02:56.403Z,15.82
2022-11-23T15:05:32.540Z,18.27
2022-11-23T15:08:16.912Z,21.70
2022-11-23T15:11:00.627Z,20.83
2022-11-23T15:13:31.725Z,21.23
2022-11-23T15:15:59.015Z,18.20
2022-11-23T15:18:39.461Z,19.30
2022-11-23T15:21:12.501Z,19.48
2022-11-23T15:23:47.803Z,19.98
2022-11-23T15:29:30.987Z,19.45
2022-11-23T15:32:28.707Z,19.02
2022-11-23T15:34:46.508Z,18.13
2022-11-23T15:37:14.034Z,18.98
2022-11-23T15:39:42.560Z,19.45
2022-11-23T15:42:17.903Z,18.98
2022-11-23T15:44:50.576Z,19.67
2022-11-23T15:47:27.842Z,18.90
2022-11-23T15:50:08.479Z,19.13
2022-11-23T15:52:37.775Z,19.83
2022-11-23T15:55:12.807Z,19.23
2022-11-23T15:57:41.089Z,20.08
2022-11-23T16:00:25.002Z,21.75
2022-11-23T16:02:52.846Z,22.25
2022-11-23T16:05:23.734Z,20.63
2022-11-23T16:07:57.823Z,19.52
2022-11-23T16:10:29.305Z,21.55
2022-11-23T16:13:04.001Z,21.98
2022-11-23T16:15:44.385Z,18.67
2022-11-23T16:18:21.778Z,20.33
2022-11-23T16:20:58.893Z,18.80
2022-11-23T16:23:36.660Z,20.83
2022-11-23T16:26:06.383Z,19.80
2022-11-23T16:28:37.852Z,20.23
2022-11-23T16:31:05.695Z,21.35
2022-11-23T16:33:34.159Z,19.92
2022-11-23T16:36:01.351Z,20.63
2022-11-23T16:38:28.565Z,20.30
2022-11-23T16:40:56.564Z,20.63
2022-11-23T16:43:24.043Z,20.58
2022-11-23T16:45:51.820Z,22.05
2022-11-23T16:48:27.594Z,26.15
2022-11-23T16:50:57.543Z,26.40
2022-11-23T16:53:30.197Z,26.20
2022-11-23T16:56:00.548Z,26.83
2022-11-23T16:58:34.168Z,29.17
2022-11-23T17:01:02.893Z,26.48
2022-11-23T17:03:30.220Z,27.63
2022-11-23T17:05:57.478Z,26.40
2022-11-23T17:08:24.388Z,25.38
2022-11-23T17:10:52.118Z,28.60
2022-11-23T17:13:27.308Z,28.98
2022-11-23T17:15:55.208Z,30.23
2022-11-23T17:18:22.558Z,32.58
2022-11-23T17:20:49.929Z,32.05
2022-11-23T17:23:17.025Z,30.80
2022-11-23T17:25:44.483Z,32.17
2022-11-23T17:28:22.982Z,30.52
2022-11-23T17:30:50.752Z,30.67
2022-11-23T17:33:17.760Z,30.42
2022-11-23T17:35:45.966Z,29.15
2022-11-23T17:38:19.288Z,30.75
2022-11-23T17:40:46.652Z,30.30
2022-11-23T17:43:15.211Z,32.28
2022-11-23T17:45:44.475Z,30.58
2022-11-23T17:48:16.846Z,29.10
2022-11-23T17:50:44.170Z,28.98
2022-11-23T17:53:11.523Z,28.27
2022-11-23T17:55:38.851Z,31.20
2022-11-23T17:58:09.947Z,29.85
2022-11-23T18:00:38.325Z,30.63
2022-11-23T18:03:05.674Z,30.58
2022-11-23T18:05:33.144Z,29.17
2022-11-23T18:08:01.061Z,29.63
2022-11-23T18:10:28.298Z,29.85
2022-11-23T18:12:57.850Z,29.80
2022-11-23T18:15:25.101Z,29.15
2022-11-23T18:17:52.255Z,29.30
2022-11-23T18:20:19.819Z,30.52
2022-11-23T18:22:46.757Z,32.92
2022-11-23T18:25:14.021Z,28.02
2022-11-23T18:27:40.970Z,27.67
2022-11-23T18:30:09.425Z,28.25
2022-11-23T18:32:36.451Z,28.85
2022-11-23T18:35:05.187Z,28.20
2022-11-23T18:37:32.241Z,28.88
2022-11-23T18:39:59.632Z,29.10
2022-11-23T18:42:27.053Z,28.63
2022-11-23T18:44:54.316Z,29.27
2022-11-23T18:47:21.402Z,30.35
2022-11-23T18:49:48.551Z,29.10
2022-11-23T18:52:17.228Z,29.88
2022-11-23T18:54:44.399Z,27.98
2022-11-23T18:57:12.791Z,28.98
2022-11-23T18:59:57.349Z,29.55
2022-11-23T19:02:25.451Z,29.38
2022-11-23T19:04:52.739Z,28.00
2022-11-23T19:07:23.694Z,30.85
2022-11-23T19:09:53.804Z,31.83
2022-11-23T19:12:20.737Z,33.30
2022-11-23T19:14:49.741Z,31.67
2022-11-23T19:17:17.618Z,31.42
2022-11-23T19:19:44.795Z,32.40
2022-11-23T19:22:11.740Z,32.55
2022-11-23T19:24:40.276Z,31.00
2022-11-23T19:27:07.259Z,29.17
2022-11-23T19:29:35.201Z,29.83
2022-11-23T19:32:02.257Z,30.38
2022-11-23T19:34:29.549Z,28.90
2022-11-23T19:36:56.678Z,29.70
2022-11-23T19:39:25.692Z,28.48
2022-11-23T19:41:52.869Z,34.88
2022-11-23T19:44:20.148Z,34.22
2022-11-23T19:46:47.091Z,31.35
2022-11-23T19:49:14.310Z,30.75
2022-11-23T19:51:41.206Z,30.10
2022-11-23T19:54:09.994Z,31.17
2022-11-23T19:56:39.963Z,30.05
2022-11-23T19:59:07.207Z,31.23
2022-11-23T20:01:34.131Z,30.67
2022-11-23T20:04:09.125Z,29.63
2022-11-23T20:06:39.573Z,30.13
2022-11-23T20:09:11.427Z,30.63
2022-11-23T20:11:40.535Z,33.88
2022-11-23T20:14:10.446Z,29.50
2022-11-23T20:16:37.812Z,30.70
2022-11-23T20:19:08.534Z,32.33
2022-11-23T20:21:37.683Z,26.83
2022-11-23T20:24:10.863Z,29.95
2022-11-23T20:26:38.594Z,32.58
2022-11-23T20:29:08.710Z,31.42
2022-11-23T20:31:37.442Z,39.53
2022-11-23T20:34:07.725Z,32.90
2022-11-23T20:36:38.652Z,30.05
2022-11-23T20:39:09.807Z,29.60
2022-11-23T20:41:38.509Z,28.92
2022-11-23T20:44:15.603Z,30.30
2022-11-23T20:49:31.704Z,29.27
2022-11-23T20:52:02.223Z,30.95
2022-11-23T20:54:29.415Z,32.58
2022-11-23T20:56:59.990Z,35.33
2022-11-23T20:59:27.669Z,30.23
2022-11-23T21:01:54.860Z,30.63
2022-11-23T21:04:22.206Z,31.35
2022-11-23T21:06:49.139Z,29.65
2022-11-23T21:09:17.152Z,32.85
2022-11-23T21:12:02.708Z,30.83
2022-11-23T21:14:31.785Z,31.30
2022-11-23T21:17:00.335Z,33.42
2022-11-23T21:19:32.084Z,32.50
2022-11-23T21:22:03.964Z,32.10
2022-11-23T21:24:31.656Z,31.85
2022-11-23T21:26:59.108Z,30.02
2022-11-23T21:29:26.745Z,29.95
2022-11-23T21:31:53.939Z,28.58
2022-11-23T21:34:27.177Z,31.45
2022-11-23T21:36:56.787Z,30.30
2022-11-23T21:39:24.649Z,32.30
2022-11-23T21:41:53.963Z,30.92
2022-11-23T21:44:24.891Z,31.02
2022-11-23T21:46:51.853Z,32.80
2022-11-23T21:49:21.582Z,35.00
2022-11-23T21:51:48.778Z,31.65
2022-11-23T21:54:16.486Z,31.05
2022-11-23T21:56:45.715Z,29.17
2022-11-23T21:59:13.938Z,31.75
2022-11-23T22:01:42.087Z,32.95
2022-11-23T22:04:15.772Z,32.55
2022-11-23T22:06:45.389Z,30.67
2022-11-23T22:09:14.011Z,29.85
2022-11-23T22:11:44.073Z,26.73
2022-11-23T22:14:16.447Z,27.90
2022-11-23T22:16:56.755Z,28.60
2022-11-23T22:19:23.925Z,27.38
2022-11-23T22:21:50.877Z,25.20
2022-11-23T22:24:21.165Z,29.02
2022-11-23T22:26:49.191Z,28.60
2022-11-23T22:29:16.616Z,26.00
2022-11-23T22:31:44.054Z,26.55
2022-11-23T22:34:14.102Z,25.88
2022-11-23T22:36:42.152Z,24.30
2022-11-23T22:39:10.422Z,24.42
2022-11-23T22:41:38.511Z,23.35
2022-11-23T22:44:08.850Z,22.15
2022-11-23T22:46:37.626Z,22.75
2022-11-23T22:49:05.231Z,25.02
2022-11-23T22:51:32.809Z,21.58
2022-11-23T22:54:01.708Z,22.10
2022-11-23T22:56:31.277Z,21.67
2022-11-23T22:58:59.248Z,20.25
2022-11-23T23:01:30.061Z,22.52
2022-11-23T23:04:00.603Z,21.90
2022-11-23T23:06:36.221Z,20.45
2022-11-23T23:09:07.065Z,21.38
2022-11-23T23:11:35.889Z,21.40
2022-11-23T23:14:03.613Z,21.00
2022-11-23T23:16:31.486Z,21.65
2022-11-23T23:18:59.325Z,20.45
2022-11-23T23:21:28.868Z,19.33
2022-11-23T23:24:00.215Z,19.90
2022-11-23T23:26:29.195Z,18.88
2022-11-23T23:28:58.515Z,19.08
2022-11-23T23:31:27.176Z,18.92
2022-11-23T23:33:54.123Z,18.25
2022-11-23T23:36:23.613Z,17.77
2022-11-23T23:38:51.243Z,18.80
2022-11-23T23:41:18.958Z,18.67
2022-11-23T23:43:48.146Z,18.05
2022-11-23T23:46:16.320Z,18.23
2022-11-23T23:48:43.986Z,18.35
2022-11-23T23:51:17.898Z,17.88
2022-11-23T23:53:46.824Z,19.23
2022-11-23T23:56:18.976Z,17.77
2022-11-23T23:58:46.336Z,18.02
